Latest Coastal Weather Observations for Charles Point

IDD60701

Issued at 4:31 am CST Wednesday 28 June 2017 (issued every 10 minutes, with the page automatically refreshed every 10 minutes)

About coastal observations | Map of coastal stations | Coastal observations for NT | Marine services | Other Formats
Station Details ID: 014031 Name: CHARLES POINT Lat: -12.39 Lon: 130.63 Height: 14.0 m
Data from the previous 72 hours. | See also: Recent months for locations in Northern Territory
Date/Time
CST
Temp
°C
Wind Pressure Rain since
9am
mm
Weather Cloud Vis
km
Sea
Height
m
Swell
Dir  Spd
kts
Gust
kts
hPa Trend Height
m
Period
s
Dir
28/04:30am 20.8 S 4 6 1013.1 - 0.0 - - - - - - -
28/04:00am 21.0 S 4 6 1013.0 - 0.0 - - - - - - -
28/03:30am 21.2 S 4 5 1013.0 - 0.0 - - - - - - -
28/03:00am 21.3 S 4 5 1012.9 - 0.0 - - - - - - -
28/02:30am 21.5 S 4 5 1013.1 - 0.0 - - - - - - -
28/02:00am 21.4 S 4 5 1013.1 - 0.0 - - - - - - -
28/01:30am 21.6 S 4 5 1013.3 - 0.0 - - - - - - -
28/01:00am 21.6 S 4 6 1013.4 - 0.0 - - - - - - -
28/12:30am 21.5 S 4 6 1013.4 - 0.0 - - - - - - -
28/12:00am 21.4 S 4 5 1013.3 - 0.0 - - - - - - -
 
Date/Time
CST
Temp
°C
Wind Pressure Rain since
9am
mm
Weather Cloud Vis
km
Sea
Height
m
Swell
Dir  Spd
kts
Gust
kts
hPa Trend Height
m
Period
s
Dir
27/11:30pm 21.5 S 4 5 1013.5 - 0.0 - - - - - - -
27/11:00pm 21.5 SE 3 4 1013.7 - 0.0 - - - - - - -
27/10:30pm 21.3 ENE 3 4 1013.9 - 0.0 - - - - - - -
27/10:00pm 21.6 CALM 0 0 1013.9 - 0.0 - - - - - - -
27/09:30pm 22.3 CALM 0 0 1013.9 - 0.0 - - - - - - -
27/09:00pm 22.9 CALM 0 0 1013.5 - 0.0 - - - - - - -
27/08:30pm 23.6 CALM 0 0 1013.2 - 0.0 - - - - - - -
27/08:00pm 25.8 NNE 3 4 1012.7 - 0.0 - - - - - - -
27/07:30pm 25.8 NNE 4 6 1012.4 - 0.0 - - - - - - -
27/07:00pm 26.0 NNE 4 7 1012.3 - 0.0 - - - - - - -
27/06:30pm 26.3 NNE 4 7 1012.2 - 0.0 - - - - - - -
27/06:00pm 26.4 NNE 8 10 1012.0 - 0.0 - - - - - - -
27/05:30pm 26.9 NE 8 11 1011.8 - 0.0 - - - - - - -
27/05:00pm 27.4 NE 9 11 1011.5 - 0.0 - - - - - - -
27/04:30pm 27.4 NE 7 11 1011.4 - 0.0 - - - - - - -
27/04:00pm 27.9 NE 8 10 1011.5 - 0.0 - - - - - - -
27/03:30pm 27.8 NE 8 11 1011.6 - 0.0 - - - - - - -
27/03:00pm 28.4 NNE 7 10 1011.7 - 0.0 - - - - - - -
27/02:30pm 28.5 NNE 7 10 1012.2 - 0.0 - - - - - - -
27/02:00pm 28.1 E 5 8 1012.7 - 0.0 - - - - - - -
27/01:30pm - ESE 4 6 1013.0 - 0.0 - - - - - - -
27/01:00pm - ESE 4 6 1013.6 - 0.0 - - - - - - -
27/12:30pm - SE 3 5 1014.1 - 0.0 - - - - - - -
27/12:00pm 28.2 SE 3 4 1014.6 - 0.0 - - - - - - -
27/11:30am 28.1 SE 3 4 1014.9 - 0.0 - - - - - - -
27/11:00am 28.4 SE 2 4 1014.8 - 0.0 - - - - - - -
27/10:30am 28.2 SSW 2 3 1014.7 - 0.0 - - - - - - -
27/10:00am 25.8 S 4 6 1014.7 - 0.0 - - - - - - -
27/09:30am 24.5 S 5 7 1014.8 - 0.0 - - - - - - -
27/09:00am 23.4 S 5 7 1014.8 - 0.0 - - - - - - -
27/08:30am 22.3 S 5 7 1014.6 - 0.0 - - - - - - -
27/08:00am 20.9 SSE 3 4 1014.1 - 0.0 - - - - - - -
27/07:30am 20.0 SE 2 3 1014.1 - 0.0 - - - - - - -
27/07:00am 20.3 SE 4 5 1013.7 - 0.0 - - - - - - -
27/06:30am 20.1 S 5 7 1013.4 - 0.0 - - - - - - -
27/06:00am 20.2 S 5 7 1013.2 - 0.0 - - - - - - -
27/05:30am 20.4 S 5 7 1013.2 - 0.0 - - - - - - -
27/05:00am 20.4 S 5 6 1013.3 - 0.0 - - - - - - -
27/04:30am 20.6 S 5 7 1013.4 - 0.0 - - - - - - -
27/04:00am 20.9 S 5 7 1013.5 - 0.0 - - - - - - -
27/03:30am 20.8 S 5 7 1013.5 - 0.0 - - - - - - -
27/03:00am 20.9 S 4 6 1013.8 - 0.0 - - - - - - -
27/02:30am 21.0 S 4 5 1013.9 - 0.0 - - - - - - -
27/02:00am 21.3 S 4 6 1014.0 - 0.0 - - - - - - -
27/01:30am 21.0 S 4 5 1014.2 - 0.0 - - - - - - -
27/01:00am 21.3 S 5 6 1014.2 - 0.0 - - - - - - -
27/12:30am 21.5 S 4 5 1014.1 - 0.0 - - - - - - -
27/12:00am 21.6 S 4 6 1014.3 - 0.0 - - - - - - -
 
Date/Time
CST
Temp
°C
Wind Pressure Rain since
9am
mm
Weather Cloud Vis
km
Sea
Height
m
Swell
Dir  Spd
kts
Gust
kts
hPa Trend Height
m
Period
s
Dir
26/11:30pm 21.9 S 4 5 1014.3 - 0.0 - - - - - - -
26/11:00pm 21.9 S 4 5 1014.4 - 0.0 - - - - - - -
26/10:30pm 22.0 S 4 5 1014.4 - 0.0 - - - - - - -
26/10:00pm 21.8 S 4 5 1014.4 - 0.0 - - - - - - -
26/09:30pm 22.0 S 4 6 1014.1 - 0.0 - - - - - - -
26/09:00pm 21.8 E 4 6 1013.8 - 0.0 - - - - - - -
26/08:30pm 22.4 NE 3 4 1013.4 - 0.0 - - - - - - -
26/08:00pm 23.4 NE 2 5 1012.9 - 0.0 - - - - - - -
26/07:30pm 25.4 NE 4 6 1012.6 - 0.0 - - - - - - -
26/07:00pm 26.0 NNE 5 7 1012.2 - 0.0 - - - - - - -
26/06:30pm 26.2 NNE 8 11 1011.9 - 0.0 - - - - - - -
26/06:00pm 26.6 NNE 8 11 1011.7 - 0.0 - - - - - - -
26/05:30pm 26.9 NNE 8 10 1011.5 - 0.0 - - - - - - -
26/05:00pm 26.8 NNE 7 10 1011.5 - 0.0 - - - - - - -
26/04:30pm 27.0 NNE 5 8 1011.5 - 0.0 - - - - - - -
26/04:00pm 26.9 N 8 9 1011.4 - 0.0 - - - - - - -
26/03:30pm 27.1 NNE 7 9 1011.7 - 0.0 - - - - - - -
26/03:00pm 27.0 NNE 8 11 1012.0 - 0.0 - - - - - - -
26/02:30pm 27.1 N 9 11 1012.1 - 0.0 - - - - - - -
26/02:00pm 27.4 N 5 7 1012.2 - 0.0 - - - - - - -
26/01:30pm 27.8 N 4 5 1012.7 - 0.0 - - - - - - -
26/01:00pm 28.2 NNE 4 6 1013.1 - 0.0 - - - - - - -
26/12:30pm 28.2 NE 5 7 1013.5 - 0.0 - - - - - - -
26/12:00pm 28.2 ENE 5 7 1013.8 - 0.0 - - - - - - -
26/11:30am - ENE 4 8 1014.3 - 0.0 - - - - - - -
26/11:00am 27.6 E 5 10 1014.6 - 0.0 - - - - - - -
26/10:30am 26.9 E 5 10 1014.7 - 0.0 - - - - - - -
26/10:00am 26.0 E 4 7 1014.8 - 0.0 - - - - - - -
26/09:30am 25.0 E 5 9 1014.8 - 0.0 - - - - - - -
26/09:00am 24.1 ESE 3 5 1014.7 - 0.0 - - - - - - -
26/08:30am 22.9 SE 3 6 1014.5 - 0.0 - - - - - - -
26/08:00am 21.0 SSE 4 5 1014.1 - 0.0 - - - - - - -
26/07:30am 19.9 SSE 4 5 1013.8 - 0.0 - - - - - - -
26/07:00am 19.7 SE 4 5 1013.3 - 0.0 - - - - - - -
26/06:30am 19.4 ESE 3 4 1013.1 - 0.0 - - - - - - -
26/06:00am 19.5 E 3 3 1012.9 - 0.0 - - - - - - -
26/05:30am 19.8 E 2 3 1012.7 - 0.0 - - - - - - -
26/05:00am 20.4 E 2 3 1012.7 - 0.0 - - - - - - -
26/04:30am 21.1 ENE 2 3 1012.5 - 0.0 - - - - - - -
26/04:00am 22.6 ENE 2 4 1012.5 - 0.0 - - - - - - -
26/03:30am 24.2 NE 6 8 1012.6 - 0.0 - - - - - - -
26/03:00am 24.2 NE 7 9 1012.9 - 0.0 - - - - - - -
26/02:30am 24.2 NNE 6 9 1012.9 - 0.0 - - - - - - -
26/02:00am 22.1 NE 1 4 1013.2 - 0.0 - - - - - - -
26/01:30am 21.7 NE 3 5 1013.4 - 0.0 - - - - - - -
26/01:00am 20.1 NNE 2 3 1013.2 - 0.0 - - - - - - -
26/12:30am - NNE 2 2 1013.1 - 0.0 - - - - - - -
26/12:00am - CALM 0 2 1013.0 - 0.0 - - - - - - -
 
Date/Time
CST
Temp
°C
Wind Pressure Rain since
9am
mm
Weather Cloud Vis
km
Sea
Height
m
Swell
Dir  Spd
kts
Gust
kts
hPa Trend Height
m
Period
s
Dir
25/11:30pm 20.4 CALM 0 0 1012.9 - 0.0 - - - - - - -
25/11:00pm 20.7 CALM 0 0 1012.9 - 0.0 - - - - - - -
25/10:30pm 21.0 CALM 0 0 1012.9 - 0.0 - - - - - - -
25/10:00pm 21.6 CALM 0 0 1012.9 - 0.0 - - - - - - -
25/09:30pm 22.6 CALM 0 0 1012.6 - 0.0 - - - - - - -
25/09:00pm 24.1 NNE 2 4 1012.3 - 0.0 - - - - - - -
25/08:30pm 25.9 NE 4 7 1012.3 - 0.0 - - - - - - -
25/08:00pm 25.8 NE 5 8 1012.2 - 0.0 - - - - - - -
25/07:30pm 25.8 NNE 6 8 1012.0 - 0.0 - - - - - - -
25/07:00pm 25.7 NE 8 10 1011.7 - 0.0 - - - - - - -
25/06:30pm 25.8 NNE 7 9 1011.3 - 0.0 - - - - - - -
25/06:00pm 26.0 NNE 6 9 1010.9 - 0.0 - - - - - - -
25/05:30pm 26.4 NNE 6 9 1010.9 - 0.0 - - - - - - -
25/05:00pm 26.5 NNE 7 10 1010.6 - 0.0 - - - - - - -
25/04:30pm 26.9 NNE 7 10 1010.7 - 0.0 - - - - - - -
25/04:00pm 26.7 N 8 10 1011.0 - 0.0 - - - - - - -
25/03:30pm 27.0 NNE 7 11 1010.9 - 0.0 - - - - - - -
25/03:00pm 27.1 NNE 7 10 1011.1 - 0.0 - - - - - - -
25/02:30pm 27.1 NNE 6 10 1011.4 - 0.0 - - - - - - -
25/02:00pm 27.2 N 7 10 1011.8 - 0.0 - - - - - - -
25/01:30pm 27.4 NNE 5 8 1012.3 - 0.0 - - - - - - -
25/01:00pm - NNE 5 6 1012.7 - 0.0 - - - - - - -
25/12:30pm 28.5 NE 4 6 1013.2 - 0.0 - - - - - - -
25/12:00pm 28.1 ENE 3 5 1013.6 - 0.0 - - - - - - -
25/11:30am 27.5 ENE 4 6 1013.8 - 0.0 - - - - - - -
25/11:00am 27.1 ENE 4 6 1013.9 - 0.0 - - - - - - -
25/10:30am 26.4 ENE 4 7 1014.0 - 0.0 - - - - - - -
25/10:00am 25.9 E 4 7 1014.0 - 0.0 - - - - - - -
25/09:30am 25.2 E 5 8 1013.9 - 0.0 - - - - - - -
25/09:00am 24.5 ESE 3 7 1013.9 - 0.2 - - - - - - -
25/08:30am 23.7 SE 3 5 1013.8 - 0.2 - - - - - - -
25/08:00am 21.8 SSE 4 5 1013.6 - 0.2 - - - - - - -
25/07:30am 20.7 SSE 4 5 1013.3 - 0.2 - - - - - - -
25/07:00am 20.4 SSE 4 5 1013.0 - 0.0 - - - - - - -
25/06:30am 20.1 SSE 4 5 1012.6 - 0.0 - - - - - - -
25/06:00am 19.7 S 4 5 1012.3 - 0.0 - - - - - - -
25/05:30am - S 4 5 1012.2 - 0.0 - - - - - - -
25/05:00am 19.7 S 4 5 1012.2 - 0.0 - - - - - - -

Other Formats:

Comma delimited format used in spreadsheet applications
http://www.bom.gov.au/fwo/IDD60701/IDD60701.99510.axf

JavaScript Object Notation format (JSON) in row-major order
http://www.bom.gov.au/fwo/IDD60701/IDD60701.99510.json